Time;durP1;ratioP1;P1;durP2;ratioP2;P2;SDS_P1;SDS_P2;PMS_P1;PMS_P2;Temp;Humidity;BMP_temperature;BMP_pressure;BME280_temperature;BME280_humidity;BME280_pressure;Samples;Min_cycle;Max_cycle;Signal;HPM_P1;HPM_P2
2021/01/16 00:00:38;;;;;;;23.03;13.53;;;2.80;33.30;;;;;;5009052;28;20408;-74
2021/01/16 00:03:09;;;;;;;22.00;12.83;;;2.80;33.60;;;;;;5009259;28;20404;-73
2021/01/16 00:05:35;;;;;;;22.02;13.60;;;2.70;33.80;;;;;;5008840;28;20405;-75
2021/01/16 00:08:06;;;;;;;22.02;13.13;;;2.70;34.30;;;;;;5009775;28;20412;-75
2021/01/16 00:10:44;;;;;;;23.83;13.35;;;2.70;34.50;;;;;;5009903;28;20921;-73
2021/01/16 00:13:35;;;;;;;22.98;13.52;;;2.60;34.60;;;;;;5010180;28;20997;-73
2021/01/16 00:16:03;;;;;;;23.55;14.30;;;2.60;35.00;;;;;;4989805;28;20513;-74
2021/01/16 00:18:28;;;;;;;26.00;15.15;;;2.50;35.60;;;;;;4991816;28;20406;-73
2021/01/16 00:20:56;;;;;;;24.77;14.73;;;2.60;35.90;;;;;;5010076;28;20407;-74
2021/01/16 00:23:29;;;;;;;26.25;14.35;;;2.70;35.10;;;;;;5011222;28;20385;-72
2021/01/16 00:25:55;;;;;;;27.20;15.13;;;2.70;35.10;;;;;;5006086;28;20953;-72
2021/01/16 00:28:28;;;;;;;26.00;14.80;;;2.70;35.20;;;;;;5010068;28;20540;-73
2021/01/16 00:30:54;;;;;;;22.42;13.52;;;2.60;36.00;;;;;;5010762;28;20389;-73
2021/01/16 00:33:25;;;;;;;23.45;13.63;;;2.70;35.00;;;;;;5011802;28;20885;-74
2021/01/16 00:35:52;;;;;;;23.40;14.15;;;2.70;35.20;;;;;;5008116;28;20423;-72
2021/01/16 00:38:18;;;;;;;23.60;14.07;;;2.70;35.70;;;;;;5014592;28;20746;-76
2021/01/16 00:40:44;;;;;;;22.13;14.00;;;2.70;35.30;;;;;;5010926;28;20401;-76
2021/01/16 00:43:12;;;;;;;23.52;14.35;;;2.70;35.10;;;;;;5011109;28;20418;-74
2021/01/16 00:45:38;;;;;;;23.38;14.50;;;2.60;36.00;;;;;;5013066;28;20746;-70
2021/01/16 00:48:24;;;;;;;24.52;15.02;;;2.70;35.90;;;;;;5013799;28;20442;-73
2021/01/16 00:50:52;;;;;;;28.58;16.35;;;2.60;36.30;;;;;;5012688;28;20496;-71
2021/01/16 00:53:17;;;;;;;23.40;15.13;;;2.70;36.50;;;;;;5013829;28;20391;-70
2021/01/16 00:55:43;;;;;;;23.73;14.48;;;2.50;37.00;;;;;;5013208;28;20408;-72
2021/01/16 00:58:14;;;;;;;24.23;14.25;;;2.60;36.50;;;;;;5013960;28;20416;-71
2021/01/16 01:00:42;;;;;;;24.48;14.30;;;2.50;37.70;;;;;;5011743;28;20405;-71
2021/01/16 01:03:07;;;;;;;24.10;15.25;;;2.80;35.00;;;;;;5014033;28;20416;-72
2021/01/16 01:05:34;;;;;;;22.73;14.52;;;2.70;36.10;;;;;;5013498;28;20389;-72
2021/01/16 01:08:00;;;;;;;24.42;13.55;;;2.70;36.30;;;;;;5014194;28;20413;-71
2021/01/16 01:10:44;;;;;;;28.03;14.80;;;3.00;33.90;;;;;;5013202;28;20821;-71
2021/01/16 01:13:09;;;;;;;24.38;14.00;;;3.10;33.60;;;;;;5013414;28;20399;-70
2021/01/16 01:15:36;;;;;;;27.75;14.70;;;3.00;33.80;;;;;;5013503;28;20404;-71
2021/01/16 01:18:03;;;;;;;20.90;13.10;;;2.70;35.40;;;;;;5008023;28;20382;-71
2021/01/16 01:20:29;;;;;;;23.73;14.50;;;2.80;35.60;;;;;;4994078;28;20390;-71
2021/01/16 01:22:56;;;;;;;26.52;14.63;;;2.90;34.90;;;;;;4993608;28;20386;-71
2021/01/16 01:25:22;;;;;;;24.80;15.25;;;2.80;35.60;;;;;;4994056;28;20481;-71
2021/01/16 01:27:50;;;;;;;23.75;14.63;;;2.60;36.60;;;;;;5012841;28;20484;-71
2021/01/16 01:30:17;;;;;;;24.13;13.60;;;2.50;37.40;;;;;;5012699;28;21058;-70
2021/01/16 01:32:43;;;;;;;23.40;14.35;;;2.50;36.90;;;;;;4997135;28;20422;-71
2021/01/16 01:35:09;;;;;;;23.83;14.20;;;2.60;36.40;;;;;;4992672;28;20481;-71
2021/01/16 01:37:43;;;;;;;22.35;13.75;;;2.80;35.00;;;;;;4993413;28;20845;-70
2021/01/16 01:40:13;;;;;;;24.98;14.07;;;2.70;35.20;;;;;;4993744;28;20826;-71
2021/01/16 01:42:39;;;;;;;25.20;14.32;;;2.60;36.00;;;;;;5007653;28;20447;-70
2021/01/16 01:45:08;;;;;;;22.58;14.32;;;2.50;36.30;;;;;;5012596;28;20397;-71
2021/01/16 01:47:36;;;;;;;22.95;14.30;;;2.50;36.50;;;;;;5012457;28;20389;-71
2021/01/16 01:50:04;;;;;;;27.70;14.35;;;2.50;36.80;;;;;;5012443;28;20863;-71
2021/01/16 01:52:30;;;;;;;24.98;14.00;;;2.50;36.60;;;;;;5011480;28;20404;-70
2021/01/16 01:54:57;;;;;;;25.90;15.00;;;2.50;36.50;;;;;;5012921;28;20404;-72
2021/01/16 01:57:24;;;;;;;28.90;15.57;;;2.50;36.20;;;;;;5012797;28;20774;-71
2021/01/16 01:59:53;;;;;;;22.77;14.10;;;2.50;36.20;;;;;;5012830;28;20385;-71
2021/01/16 02:02:19;;;;;;;24.55;15.10;;;2.50;36.30;;;;;;4997346;28;20402;-71
2021/01/16 02:04:46;;;;;;;20.77;13.30;;;2.40;37.00;;;;;;4994031;28;20403;-71
2021/01/16 02:07:26;;;;;;;22.75;14.15;;;2.80;36.70;;;;;;5011856;28;20455;-71
2021/01/16 02:09:53;;;;;;;24.98;15.30;;;3.00;34.50;;;;;;5013353;28;20388;-71
2021/01/16 02:12:19;;;;;;;25.50;14.35;;;2.80;35.20;;;;;;5012407;28;20491;-73
2021/01/16 02:15:11;;;;;;;22.75;13.23;;;2.60;36.40;;;;;;5011917;28;20413;-71
2021/01/16 02:17:42;;;;;;;23.95;14.43;;;2.50;37.00;;;;;;5009499;28;20492;-71
2021/01/16 02:20:10;;;;;;;22.07;13.50;;;2.50;37.50;;;;;;4991474;28;20451;-71
2021/01/16 02:23:10;;;;;;;22.90;14.65;;;2.50;37.90;;;;;;4993140;28;20398;-71
2021/01/16 02:25:42;;;;;;;22.33;14.15;;;2.50;37.60;;;;;;4967650;28;20477;-71
2021/01/16 02:28:09;;;;;;;21.75;13.80;;;2.60;37.20;;;;;;4998422;28;20412;-71
2021/01/16 02:30:38;;;;;;;22.52;13.93;;;2.60;36.60;;;;;;5011380;28;20405;-72
2021/01/16 02:33:17;;;;;;;22.63;14.20;;;2.60;36.90;;;;;;5012136;28;20404;-72
2021/01/16 02:36:07;;;;;;;26.23;14.27;;;2.60;37.20;;;;;;5010675;28;20909;-71
2021/01/16 02:38:43;;;;;;;24.63;14.47;;;2.60;37.70;;;;;;5011529;28;20428;-71
2021/01/16 02:41:24;;;;;;;22.15;13.77;;;2.50;38.10;;;;;;5005520;28;20468;-71
2021/01/16 02:44:01;;;;;;;28.02;14.90;;;2.50;38.80;;;;;;5010866;28;20462;-72
2021/01/16 02:46:38;;;;;;;22.80;14.75;;;2.40;39.50;;;;;;5011642;28;20786;-71
2021/01/16 02:49:26;;;;;;;26.10;14.50;;;2.40;39.90;;;;;;5011285;28;20483;-71
2021/01/16 02:52:01;;;;;;;22.45;13.80;;;2.30;40.50;;;;;;5010076;28;20393;-71
2021/01/16 02:54:27;;;;;;;24.55;15.43;;;2.30;41.30;;;;;;5011463;28;20404;-71
2021/01/16 02:56:53;;;;;;;23.38;14.45;;;2.30;42.00;;;;;;5010842;28;20381;-70
2021/01/16 02:59:19;;;;;;;27.48;15.45;;;2.20;42.00;;;;;;4991505;28;20394;-71
2021/01/16 03:01:46;;;;;;;30.90;17.90;;;2.20;42.10;;;;;;5001019;28;20401;-70
2021/01/16 03:04:12;;;;;;;26.33;17.48;;;2.20;42.40;;;;;;5010904;28;20482;-72
2021/01/16 03:06:48;;;;;;;31.87;17.67;;;2.20;42.60;;;;;;5010873;28;20894;-73
2021/01/16 03:09:14;;;;;;;26.48;15.55;;;2.20;43.00;;;;;;5010974;28;20468;-74
2021/01/16 03:11:44;;;;;;;27.38;15.48;;;2.30;43.00;;;;;;5010081;28;20815;-74
2021/01/16 03:14:11;;;;;;;24.00;15.02;;;2.30;42.20;;;;;;5009780;28;20411;-72
2021/01/16 03:16:40;;;;;;;21.05;14.13;;;2.30;41.70;;;;;;5010999;28;20388;-75
2021/01/16 03:19:07;;;;;;;25.30;14.80;;;2.40;40.70;;;;;;5008802;28;20392;-76
2021/01/16 03:21:38;;;;;;;24.20;15.13;;;2.40;40.60;;;;;;5008578;28;20393;-74
2021/01/16 03:24:05;;;;;;;26.00;14.50;;;2.30;41.00;;;;;;5010392;28;20894;-73
2021/01/16 03:26:30;;;;;;;29.17;15.73;;;2.40;41.10;;;;;;5010916;28;20397;-73
2021/01/16 03:28:56;;;;;;;20.67;13.80;;;2.40;40.80;;;;;;5010821;28;20880;-74
2021/01/16 03:31:21;;;;;;;25.43;15.63;;;2.40;41.10;;;;;;5010279;28;20405;-74
2021/01/16 03:33:47;;;;;;;23.67;14.63;;;2.30;41.10;;;;;;5010738;28;20396;-74
2021/01/16 03:36:12;;;;;;;28.23;14.77;;;2.30;41.00;;;;;;4998016;28;20501;-73
2021/01/16 03:38:38;;;;;;;30.10;16.50;;;2.40;41.50;;;;;;4991219;28;20470;-73
2021/01/16 03:41:03;;;;;;;26.40;15.20;;;2.30;41.60;;;;;;4994599;28;20401;-75
2021/01/16 03:43:29;;;;;;;23.88;14.73;;;2.30;41.10;;;;;;5011042;28;20384;-73
2021/01/16 03:45:54;;;;;;;22.02;13.73;;;2.30;40.80;;;;;;5010061;28;20459;-75
2021/01/16 03:48:20;;;;;;;23.38;14.40;;;2.40;40.90;;;;;;5010878;28;20393;-74
2021/01/16 03:50:45;;;;;;;23.42;14.75;;;2.40;40.40;;;;;;5010560;28;20396;-74
2021/01/16 03:53:11;;;;;;;23.60;13.75;;;2.40;39.80;;;;;;5010825;28;20409;-74
2021/01/16 03:55:37;;;;;;;22.57;13.87;;;2.40;40.00;;;;;;5010820;28;20883;-74
2021/01/16 03:58:02;;;;;;;22.23;13.50;;;2.40;40.50;;;;;;5009446;28;20393;-73
2021/01/16 04:00:28;;;;;;;21.73;13.77;;;2.40;40.20;;;;;;5010019;28;20396;-74
2021/01/16 04:02:53;;;;;;;25.40;14.95;;;2.50;39.60;;;;;;5010095;28;20392;-73
2021/01/16 04:05:19;;;;;;;22.90;13.70;;;2.40;39.40;;;;;;5010873;28;20391;-73
2021/01/16 04:07:50;;;;;;;31.63;14.40;;;2.40;39.50;;;;;;5013564;28;20380;-74
2021/01/16 04:10:16;;;;;;;23.50;13.80;;;2.40;39.60;;;;;;5014189;28;20388;-74
2021/01/16 04:12:42;;;;;;;21.87;13.77;;;2.50;39.60;;;;;;5007574;28;20406;-75
2021/01/16 04:15:08;;;;;;;24.30;13.70;;;2.40;40.20;;;;;;5014811;28;20408;-74
2021/01/16 04:17:34;;;;;;;24.88;13.45;;;2.30;40.30;;;;;;5012590;28;20385;-74
2021/01/16 04:19:59;;;;;;;24.40;13.80;;;2.30;40.80;;;;;;4994728;28;20558;-74
2021/01/16 04:22:25;;;;;;;23.73;14.00;;;2.40;40.60;;;;;;4995218;28;20391;-74
2021/01/16 04:24:50;;;;;;;24.10;13.85;;;2.50;39.60;;;;;;4994974;28;20402;-75
2021/01/16 04:27:16;;;;;;;23.73;14.38;;;2.50;39.40;;;;;;5008500;28;20397;-73
2021/01/16 04:29:41;;;;;;;23.70;14.45;;;2.40;39.50;;;;;;5014378;28;20442;-74
2021/01/16 04:32:07;;;;;;;26.53;15.50;;;2.40;39.60;;;;;;5005520;28;20394;-74
2021/01/16 04:34:32;;;;;;;26.97;15.73;;;2.40;40.10;;;;;;4994968;28;20410;-75
2021/01/16 04:36:58;;;;;;;26.80;15.77;;;2.40;41.00;;;;;;4994892;28;20390;-74
2021/01/16 04:39:23;;;;;;;27.00;16.30;;;2.40;40.30;;;;;;4994786;28;20874;-73
2021/01/16 04:41:53;;;;;;;27.58;15.50;;;2.40;40.20;;;;;;5007594;28;20414;-74
2021/01/16 04:44:21;;;;;;;25.35;15.68;;;2.40;40.10;;;;;;5002289;28;20794;-75
2021/01/16 04:46:49;;;;;;;24.95;15.75;;;2.40;40.10;;;;;;5014023;28;20773;-74
2021/01/16 04:49:17;;;;;;;28.25;16.52;;;2.40;40.00;;;;;;5014106;28;20389;-75
2021/01/16 04:51:47;;;;;;;27.85;16.58;;;2.40;40.60;;;;;;5014341;28;20805;-74
2021/01/16 04:54:17;;;;;;;27.98;16.42;;;2.40;41.30;;;;;;5012884;28;20466;-74
2021/01/16 04:56:43;;;;;;;28.77;17.20;;;2.40;41.20;;;;;;5003194;28;20963;-75
2021/01/16 04:59:09;;;;;;;29.65;17.25;;;2.40;40.90;;;;;;5012431;28;20391;-75
2021/01/16 05:01:35;;;;;;;30.20;17.25;;;2.40;40.80;;;;;;5013833;28;20381;-75
2021/01/16 05:04:01;;;;;;;27.90;17.30;;;2.50;40.80;;;;;;5013482;28;20396;-75
2021/01/16 05:06:28;;;;;;;30.67;17.50;;;2.50;40.30;;;;;;5013747;28;20400;-75
2021/01/16 05:08:55;;;;;;;29.65;17.42;;;2.40;40.70;;;;;;5013330;28;20712;-74
2021/01/16 05:11:32;;;;;;;26.77;16.20;;;2.40;41.30;;;;;;5013925;28;20455;-74
2021/01/16 05:14:12;;;;;;;26.48;16.08;;;2.40;41.40;;;;;;5010403;28;20402;-76
2021/01/16 05:16:44;;;;;;;25.52;14.77;;;2.30;41.60;;;;;;4991902;28;20763;-74
2021/01/16 05:19:15;;;;;;;25.23;15.60;;;2.50;40.80;;;;;;5007196;28;20439;-73
2021/01/16 05:21:41;;;;;;;25.27;15.17;;;2.40;40.70;;;;;;5012614;28;20405;-74
2021/01/16 05:24:07;;;;;;;26.83;15.82;;;2.40;40.60;;;;;;5012432;28;20428;-74
2021/01/16 05:26:44;;;;;;;30.60;15.52;;;2.40;41.00;;;;;;5012819;28;20439;-73
2021/01/16 05:29:10;;;;;;;25.75;14.90;;;2.30;41.30;;;;;;5012428;28;20894;-73
2021/01/16 05:31:36;;;;;;;22.20;13.32;;;2.40;41.40;;;;;;5012537;28;20395;-73
2021/01/16 05:34:02;;;;;;;26.87;14.20;;;2.40;41.10;;;;;;5009286;28;20395;-74
2021/01/16 05:36:30;;;;;;;26.02;15.65;;;2.40;40.50;;;;;;5005727;28;20932;-73
2021/01/16 05:38:55;;;;;;;23.92;13.60;;;2.40;40.00;;;;;;5012608;28;20419;-73
2021/01/16 05:41:23;;;;;;;31.03;15.90;;;2.50;39.90;;;;;;5012611;28;20413;-75
2021/01/16 05:43:50;;;;;;;25.45;14.15;;;2.60;39.70;;;;;;5012460;28;20940;-73
2021/01/16 05:46:16;;;;;;;21.33;12.60;;;2.60;39.40;;;;;;5009578;28;20475;-74
2021/01/16 05:48:42;;;;;;;79.18;42.58;;;2.70;37.60;;;;;;4992757;28;20418;-74
2021/01/16 05:51:08;;;;;;;67.87;36.70;;;2.60;36.70;;;;;;5011445;28;20459;-74
2021/01/16 05:53:34;;;;;;;45.10;25.80;;;2.80;37.90;;;;;;5001347;28;20390;-74
2021/01/16 05:56:00;;;;;;;54.25;30.33;;;2.90;36.60;;;;;;5003975;28;20412;-73
2021/01/16 05:58:33;;;;;;;65.45;34.92;;;2.90;37.60;;;;;;5009430;28;20389;-73
2021/01/16 06:01:07;;;;;;;78.25;41.00;;;3.00;37.60;;;;;;4992484;28;20379;-74
2021/01/16 06:03:37;;;;;;;35.65;20.95;;;3.20;39.10;;;;;;5000003;28;20396;-74
2021/01/16 06:06:10;;;;;;;28.92;16.08;;;3.40;36.70;;;;;;5012669;28;20381;-74
2021/01/16 06:08:50;;;;;;;24.02;12.18;;;3.50;35.30;;;;;;5012560;28;20520;-75
2021/01/16 06:11:17;;;;;;;18.15;11.23;;;3.30;33.00;;;;;;5006191;28;20401;-74
2021/01/16 06:13:43;;;;;;;21.87;11.93;;;3.10;33.20;;;;;;5012290;28;20451;-73
2021/01/16 06:16:17;;;;;;;19.70;12.15;;;3.00;33.10;;;;;;5012041;28;20902;-74
2021/01/16 06:18:51;;;;;;;27.65;12.88;;;2.80;34.10;;;;;;5010929;28;20946;-74
2021/01/16 06:21:28;;;;;;;23.67;13.60;;;2.70;34.90;;;;;;5011714;28;20419;-73
2021/01/16 06:23:59;;;;;;;24.50;13.00;;;2.70;35.00;;;;;;5011311;28;20400;-74
2021/01/16 06:26:26;;;;;;;27.90;13.30;;;2.70;34.60;;;;;;5012083;28;20896;-73
2021/01/16 06:28:56;;;;;;;21.70;13.50;;;2.70;34.50;;;;;;5010336;28;20424;-73
2021/01/16 06:31:30;;;;;;;27.27;14.88;;;2.80;34.80;;;;;;5011467;28;20393;-74
2021/01/16 06:34:00;;;;;;;24.00;14.20;;;2.80;35.10;;;;;;5011419;28;20882;-74
2021/01/16 06:36:31;;;;;;;23.15;14.45;;;2.70;35.50;;;;;;4996019;28;20428;-73
2021/01/16 06:39:03;;;;;;;24.70;14.77;;;2.70;36.50;;;;;;4992325;28;20473;-74
2021/01/16 06:41:31;;;;;;;27.37;15.53;;;2.60;36.80;;;;;;4992347;28;20397;-74
2021/01/16 06:43:57;;;;;;;30.42;16.70;;;2.70;37.50;;;;;;4992184;28;20390;-74
2021/01/16 06:46:42;;;;;;;29.98;16.35;;;2.70;36.90;;;;;;5008823;28;20462;-74
2021/01/16 06:49:27;;;;;;;32.75;18.33;;;2.80;37.50;;;;;;5011210;28;20385;-73
2021/01/16 06:51:54;;;;;;;35.67;17.42;;;2.80;37.30;;;;;;5011418;28;20947;-72
2021/01/16 06:54:30;;;;;;;31.52;18.10;;;2.80;37.00;;;;;;5011645;28;20393;-73
2021/01/16 06:57:22;;;;;;;31.40;17.45;;;2.70;37.40;;;;;;5011104;28;20396;-73
2021/01/16 06:59:48;;;;;;;32.70;17.27;;;2.70;38.30;;;;;;5003837;28;20397;-73
2021/01/16 07:02:34;;;;;;;36.00;18.05;;;2.80;37.90;;;;;;5011719;28;20731;-72
2021/01/16 07:05:09;;;;;;;32.80;17.60;;;2.70;38.30;;;;;;5011735;28;20413;-73
2021/01/16 07:07:39;;;;;;;33.13;17.90;;;2.70;38.60;;;;;;5011197;28;20431;-74
2021/01/16 07:10:09;;;;;;;30.48;18.42;;;2.70;39.00;;;;;;5011717;28;20439;-73
2021/01/16 07:12:35;;;;;;;31.90;18.90;;;2.80;38.10;;;;;;5011385;28;20405;-74
2021/01/16 07:15:04;;;;;;;32.10;18.88;;;2.80;38.50;;;;;;5011150;28;20412;-74
2021/01/16 07:17:31;;;;;;;35.67;18.75;;;2.80;38.30;;;;;;5011128;28;20424;-73
2021/01/16 07:19:58;;;;;;;31.58;17.98;;;2.80;38.00;;;;;;5010077;28;20755;-74
2021/01/16 07:22:31;;;;;;;32.67;18.40;;;2.70;38.60;;;;;;5006339;28;20460;-73
2021/01/16 07:25:01;;;;;;;32.05;18.90;;;2.70;39.50;;;;;;5011214;28;20849;-74
2021/01/16 07:27:27;;;;;;;29.43;18.00;;;2.70;39.40;;;;;;5012149;28;20783;-76
2021/01/16 07:29:57;;;;;;;29.63;18.10;;;2.60;39.70;;;;;;5009868;28;20404;-75
2021/01/16 07:32:42;;;;;;;31.35;17.67;;;2.60;39.40;;;;;;5011150;28;20598;-74
2021/01/16 07:35:12;;;;;;;31.42;18.13;;;2.70;39.30;;;;;;5011131;28;20424;-73
2021/01/16 07:37:42;;;;;;;35.60;18.40;;;2.60;39.20;;;;;;5009605;28;20396;-72
2021/01/16 07:40:29;;;;;;;32.08;18.48;;;2.70;39.40;;;;;;5004811;28;20396;-74
2021/01/16 07:42:59;;;;;;;33.05;18.00;;;2.60;39.30;;;;;;5012045;28;20789;-73
2021/01/16 07:45:49;;;;;;;32.07;17.97;;;2.60;39.50;;;;;;5013291;28;21068;-72
2021/01/16 07:48:20;;;;;;;31.90;17.80;;;2.70;39.40;;;;;;5005800;28;20445;-73
2021/01/16 07:50:51;;;;;;;31.30;17.27;;;2.70;39.70;;;;;;5004503;28;20410;-72
2021/01/16 07:53:28;;;;;;;35.83;18.40;;;2.70;39.70;;;;;;5015794;28;20400;-73
2021/01/16 07:56:10;;;;;;;34.03;18.20;;;2.60;40.20;;;;;;5016900;28;20415;-72
2021/01/16 07:58:40;;;;;;;31.40;18.27;;;2.60;40.10;;;;;;5016393;28;20397;-73
2021/01/16 08:01:15;;;;;;;30.90;18.60;;;2.60;40.80;;;;;;5013496;28;20388;-73
2021/01/16 08:03:45;;;;;;;31.85;18.02;;;2.70;39.70;;;;;;4999824;28;21231;-75
2021/01/16 08:06:35;;;;;;;29.85;17.20;;;2.70;39.70;;;;;;5005342;28;20388;-75
2021/01/16 08:09:21;;;;;;;28.95;17.80;;;2.80;38.70;;;;;;5013990;28;20403;-73
2021/01/16 08:11:51;;;;;;;35.10;19.48;;;2.80;38.10;;;;;;5009697;28;20492;-76
2021/01/16 08:14:21;;;;;;;31.92;18.38;;;2.80;38.70;;;;;;5017012;28;20400;-72
2021/01/16 08:16:54;;;;;;;30.20;18.17;;;2.80;39.20;;;;;;5018301;28;20388;-75
2021/01/16 08:19:32;;;;;;;29.77;17.63;;;2.80;39.20;;;;;;5018604;28;20392;-76
2021/01/16 08:22:17;;;;;;;33.85;17.17;;;2.80;39.10;;;;;;5018736;28;20931;-75
2021/01/16 08:25:04;;;;;;;33.03;18.55;;;2.90;39.10;;;;;;5014125;28;20511;-72
2021/01/16 08:27:31;;;;;;;31.52;18.40;;;2.90;39.20;;;;;;5004857;28;20417;-73
2021/01/16 08:29:58;;;;;;;33.53;18.50;;;2.80;40.10;;;;;;5007275;28;20428;-73
2021/01/16 08:32:24;;;;;;;31.25;19.10;;;2.90;39.40;;;;;;5013662;28;20423;-73
2021/01/16 08:34:56;;;;;;;32.33;18.42;;;3.00;38.70;;;;;;5012586;28;20499;-76
2021/01/16 08:37:26;;;;;;;36.05;19.38;;;3.00;38.50;;;;;;5015320;28;20403;-74
2021/01/16 08:39:52;;;;;;;30.88;18.70;;;3.00;38.20;;;;;;5013091;28;20884;-73
2021/01/16 08:42:24;;;;;;;31.02;18.15;;;3.00;38.00;;;;;;5013383;28;20408;-74
2021/01/16 08:44:52;;;;;;;33.33;19.20;;;2.90;38.30;;;;;;5007892;28;20393;-73
2021/01/16 08:47:18;;;;;;;37.40;19.63;;;3.00;39.20;;;;;;5008959;28;20405;-72
2021/01/16 08:49:43;;;;;;;34.80;18.95;;;3.00;38.40;;;;;;4999315;28;20409;-72
2021/01/16 08:52:10;;;;;;;33.67;19.52;;;2.90;38.70;;;;;;5012679;28;20412;-73
2021/01/16 08:54:36;;;;;;;41.45;19.30;;;2.90;39.70;;;;;;5008385;28;20905;-72
2021/01/16 08:57:01;;;;;;;36.28;20.10;;;2.90;38.40;;;;;;5008937;28;20416;-73
2021/01/16 08:59:30;;;;;;;36.37;19.07;;;2.90;38.50;;;;;;5002609;28;20738;-73
2021/01/16 09:02:11;;;;;;;39.63;20.40;;;3.00;38.30;;;;;;5011671;28;20766;-73
2021/01/16 09:04:41;;;;;;;38.03;19.63;;;3.00;38.50;;;;;;5009178;28;20394;-75
2021/01/16 09:07:23;;;;;;;40.50;19.27;;;3.00;38.20;;;;;;5001168;28;20406;-73
2021/01/16 09:09:58;;;;;;;37.80;18.77;;;3.00;37.60;;;;;;5010846;28;20432;-73
2021/01/16 09:12:31;;;;;;;38.50;19.73;;;3.00;37.80;;;;;;5012878;28;20458;-72
2021/01/16 09:15:19;;;;;;;39.85;19.38;;;3.00;38.30;;;;;;4999145;28;20453;-74
2021/01/16 09:18:11;;;;;;;39.65;19.33;;;3.00;38.70;;;;;;5009601;28;20416;-73
2021/01/16 09:20:45;;;;;;;38.65;19.08;;;3.10;37.80;;;;;;5000516;28;20827;-72
2021/01/16 09:23:19;;;;;;;35.65;19.67;;;3.10;37.70;;;;;;5006857;28;20406;-73
2021/01/16 09:25:56;;;;;;;35.83;18.33;;;3.20;37.90;;;;;;5000344;28;20400;-74
2021/01/16 09:28:41;;;;;;;38.07;18.93;;;3.20;37.70;;;;;;5012130;28;20764;-73
2021/01/16 09:31:35;;;;;;;34.20;19.30;;;3.20;37.90;;;;;;5008159;28;20408;-73
2021/01/16 09:34:20;;;;;;;35.33;19.27;;;3.30;38.20;;;;;;4999512;28;20400;-76
2021/01/16 09:36:55;;;;;;;32.13;19.00;;;3.40;38.10;;;;;;5012065;28;20982;-74
2021/01/16 09:39:29;;;;;;;33.28;17.92;;;3.40;37.00;;;;;;5006581;28;20416;-74
2021/01/16 09:41:57;;;;;;;32.30;17.27;;;3.50;36.70;;;;;;5012172;28;20716;-74
2021/01/16 09:44:41;;;;;;;28.88;16.45;;;3.40;35.10;;;;;;5002671;28;20445;-73
2021/01/16 09:47:25;;;;;;;33.10;17.60;;;3.40;35.00;;;;;;5010221;28;20448;-72
2021/01/16 09:50:06;;;;;;;28.10;16.55;;;3.40;35.50;;;;;;5009885;28;20763;-71
2021/01/16 09:52:32;;;;;;;30.48;17.55;;;3.40;34.90;;;;;;5009901;28;20401;-72
2021/01/16 09:54:58;;;;;;;32.15;17.58;;;3.40;35.60;;;;;;5010735;28;20921;-73
2021/01/16 09:57:34;;;;;;;28.20;17.60;;;3.40;36.50;;;;;;5011133;28;20547;-74
2021/01/16 10:00:30;;;;;;;31.45;17.33;;;3.50;36.30;;;;;;5011406;28;20419;-73
2021/01/16 10:03:00;;;;;;;31.70;17.70;;;3.50;36.30;;;;;;4993271;28;20408;-72
2021/01/16 10:05:40;;;;;;;35.65;17.90;;;3.50;36.20;;;;;;5011257;28;20400;-72
2021/01/16 10:08:06;;;;;;;32.28;17.92;;;3.50;36.10;;;;;;4997689;28;20405;-72
2021/01/16 10:10:43;;;;;;;35.75;18.00;;;3.40;36.60;;;;;;5009068;28;20440;-73
2021/01/16 10:13:11;;;;;;;31.67;17.42;;;3.40;36.70;;;;;;4993441;28;20438;-72
2021/01/16 10:15:50;;;;;;;28.73;17.70;;;3.50;36.40;;;;;;5008445;28;20411;-73
2021/01/16 10:18:20;;;;;;;33.10;18.50;;;3.40;36.60;;;;;;5006852;28;20754;-73
2021/01/16 10:20:59;;;;;;;31.00;17.48;;;3.40;36.10;;;;;;5002050;28;20414;-74
2021/01/16 10:23:30;;;;;;;29.80;17.75;;;3.50;36.50;;;;;;4999207;28;20409;-73
2021/01/16 10:26:05;;;;;;;32.80;17.23;;;3.50;35.70;;;;;;5008669;28;20412;-74
2021/01/16 10:28:37;;;;;;;36.63;18.40;;;3.50;35.40;;;;;;5012478;28;20517;-73
2021/01/16 10:31:05;;;;;;;27.85;17.15;;;3.50;35.70;;;;;;5006374;28;20415;-74
2021/01/16 10:33:45;;;;;;;31.85;17.70;;;3.50;35.60;;;;;;5011074;28;20926;-74
2021/01/16 10:36:18;;;;;;;29.77;17.70;;;3.50;34.90;;;;;;5008891;28;20822;-73
2021/01/16 10:38:48;;;;;;;33.17;17.98;;;3.60;34.00;;;;;;5012653;28;20404;-72
2021/01/16 10:41:32;;;;;;;29.92;16.90;;;3.50;34.40;;;;;;5012859;28;20412;-72
2021/01/16 10:44:00;;;;;;;32.58;18.15;;;3.50;34.70;;;;;;5012140;28;20863;-74
2021/01/16 10:46:32;;;;;;;32.55;16.73;;;3.50;35.30;;;;;;5011154;28;20441;-72
2021/01/16 10:49:20;;;;;;;31.58;15.90;;;3.60;34.30;;;;;;5009841;28;20562;-72
2021/01/16 10:51:58;;;;;;;29.13;16.60;;;3.60;33.80;;;;;;5011429;28;20431;-72
2021/01/16 10:54:25;;;;;;;35.05;17.52;;;3.70;33.30;;;;;;5010988;28;20404;-73
2021/01/16 10:57:04;;;;;;;30.17;16.73;;;3.70;33.30;;;;;;5009036;28;20400;-72
2021/01/16 10:59:36;;;;;;;28.63;17.40;;;3.70;33.40;;;;;;5009915;28;20401;-72
2021/01/16 11:02:11;;;;;;;31.10;17.07;;;3.90;32.70;;;;;;5011375;28;20419;-72
2021/01/16 11:04:41;;;;;;;27.48;16.17;;;3.90;31.80;;;;;;5012124;28;20505;-72
2021/01/16 11:07:09;;;;;;;28.42;16.67;;;3.80;32.00;;;;;;5010639;28;20468;-74
2021/01/16 11:09:35;;;;;;;31.05;17.20;;;3.80;32.10;;;;;;5010272;28;20839;-73
2021/01/16 11:12:05;;;;;;;26.60;15.77;;;3.90;31.70;;;;;;5009780;28;20416;-74
2021/01/16 11:14:42;;;;;;;24.38;15.98;;;3.90;32.20;;;;;;5010354;28;20404;-75
2021/01/16 11:17:09;;;;;;;29.25;18.00;;;3.80;32.30;;;;;;5009844;28;20897;-73
2021/01/16 11:19:37;;;;;;;27.53;16.30;;;3.80;33.00;;;;;;5006374;28;20451;-71
2021/01/16 11:22:10;;;;;;;33.33;17.08;;;3.80;32.90;;;;;;5009738;28;20450;-72
2021/01/16 11:24:54;;;;;;;29.67;17.93;;;3.80;32.90;;;;;;4993888;28;20400;-72
2021/01/16 11:27:26;;;;;;;37.95;21.35;;;3.80;32.80;;;;;;5009388;28;20397;-72
2021/01/16 11:30:03;;;;;;;28.95;17.45;;;3.80;32.80;;;;;;4994851;28;20554;-73
2021/01/16 11:32:34;;;;;;;32.72;17.27;;;3.90;33.20;;;;;;5009464;28;20451;-73
2021/01/16 11:35:07;;;;;;;30.98;16.75;;;4.00;33.10;;;;;;5008703;28;20417;-73
2021/01/16 11:37:52;;;;;;;29.10;16.42;;;4.10;32.30;;;;;;5008344;28;20397;-73
2021/01/16 11:40:33;;;;;;;30.90;17.10;;;4.00;31.20;;;;;;5009224;28;20408;-72
2021/01/16 11:43:24;;;;;;;29.27;16.85;;;4.10;31.40;;;;;;5010073;28;20404;-73
2021/01/16 11:46:01;;;;;;;26.23;16.10;;;4.20;29.90;;;;;;5006637;28;20803;-72
2021/01/16 11:48:29;;;;;;;28.42;16.58;;;4.20;28.70;;;;;;5008734;28;20413;-73
2021/01/16 11:50:55;;;;;;;27.17;16.02;;;4.20;28.50;;;;;;5009098;28;20400;-73
2021/01/16 11:53:20;;;;;;;32.78;17.00;;;4.10;29.00;;;;;;5008902;28;20921;-73
2021/01/16 11:55:46;;;;;;;25.92;14.88;;;4.20;28.60;;;;;;5009424;28;20515;-73
2021/01/16 11:58:12;;;;;;;26.50;15.63;;;4.30;28.20;;;;;;5006506;28;20582;-73
2021/01/16 12:00:38;;;;;;;26.63;15.70;;;4.30;28.10;;;;;;5009219;28;20811;-75
2021/01/16 12:03:04;;;;;;;30.60;15.70;;;4.30;28.60;;;;;;5009111;28;20408;-74
2021/01/16 12:05:29;;;;;;;36.97;16.50;;;4.20;28.80;;;;;;5009520;28;20504;-74
2021/01/16 12:07:56;;;;;;;29.33;17.38;;;4.20;28.70;;;;;;5008765;28;20884;-71
2021/01/16 12:10:24;;;;;;;30.35;17.30;;;4.20;27.80;;;;;;5009824;28;20758;-75
2021/01/16 12:12:50;;;;;;;30.38;16.63;;;4.20;28.10;;;;;;5009224;28;20416;-73
2021/01/16 12:15:29;;;;;;;28.42;16.20;;;4.10;27.90;;;;;;5010074;28;20839;-73
2021/01/16 12:17:56;;;;;;;29.35;16.38;;;4.30;28.00;;;;;;5008246;28;20396;-73
2021/01/16 12:20:26;;;;;;;29.85;16.30;;;4.50;27.50;;;;;;5008919;28;20766;-72
2021/01/16 12:22:57;;;;;;;31.67;15.98;;;4.50;27.30;;;;;;5010245;28;20396;-74
2021/01/16 12:25:31;;;;;;;31.63;16.42;;;4.50;27.60;;;;;;5009465;28;21099;-74
2021/01/16 12:27:58;;;;;;;26.17;16.20;;;4.50;27.00;;;;;;5003999;28;20410;-73
2021/01/16 12:30:32;;;;;;;28.65;15.20;;;4.40;26.80;;;;;;5006098;28;20909;-73
2021/01/16 12:32:58;;;;;;;26.70;15.52;;;4.40;27.10;;;;;;5013370;28;20879;-73
2021/01/16 12:35:25;;;;;;;29.40;15.68;;;4.40;26.80;;;;;;5012232;28;20503;-73
2021/01/16 12:37:52;;;;;;;27.17;15.57;;;4.40;26.70;;;;;;5013298;28;20409;-73
2021/01/16 12:40:20;;;;;;;34.75;14.77;;;4.50;26.80;;;;;;5012502;28;20397;-73
2021/01/16 12:42:47;;;;;;;27.02;15.65;;;4.50;26.80;;;;;;5008382;28;20415;-73
2021/01/16 12:45:15;;;;;;;29.40;16.10;;;4.40;27.10;;;;;;5009989;28;20448;-72
2021/01/16 12:47:43;;;;;;;26.08;15.65;;;4.50;26.60;;;;;;5011409;28;20471;-73
2021/01/16 12:50:10;;;;;;;25.33;15.15;;;4.50;26.50;;;;;;5008719;28;20818;-73
2021/01/16 12:52:36;;;;;;;25.30;14.70;;;4.50;27.30;;;;;;5015494;28;20389;-73
2021/01/16 12:55:09;;;;;;;26.67;14.73;;;4.50;27.00;;;;;;5016022;28;20413;-73